Time;durP1;ratioP1;P1;durP2;ratioP2;P2;SDS_P1;SDS_P2;PMS_P1;PMS_P2;Temp;Humidity;BMP_temperature;BMP_pressure;BME280_temperature;BME280_humidity;BME280_pressure;Samples;Min_cycle;Max_cycle;Signal;HPM_P1;HPM_P2
2020/12/09 00:00:30;;;;;;;27.55;11.25;;;;;;;2.37;76.42;93363.28;5044191;28;20685;-66
2020/12/09 00:02:56;;;;;;;27.92;11.63;;;;;;;2.42;76.50;93362.53;5043654;28;20036;-66
2020/12/09 00:05:23;;;;;;;116.10;37.42;;;;;;;2.34;77.31;93367.00;5046468;28;20049;-66
2020/12/09 00:07:51;;;;;;;54.95;20.98;;;;;;;2.25;78.47;93370.00;5041339;28;20167;-66
2020/12/09 00:10:17;;;;;;;33.95;12.80;;;;;;;2.10;79.44;93372.22;5044481;28;20029;-66
2020/12/09 00:12:42;;;;;;;29.80;13.20;;;;;;;2.26;78.76;93372.22;5045141;28;20028;-67
2020/12/09 00:15:09;;;;;;;34.60;14.13;;;;;;;2.39;78.95;93357.31;5028919;28;20056;-66
2020/12/09 00:17:35;;;;;;;29.30;13.05;;;;;;;2.51;78.43;93366.97;5043665;28;20467;-66
2020/12/09 00:20:00;;;;;;;28.00;15.02;;;;;;;2.53;77.82;93376.16;5027029;28;20021;-66
2020/12/09 00:22:25;;;;;;;29.00;13.73;;;;;;;2.64;77.81;93376.09;5043914;28;20083;-66
2020/12/09 00:24:52;;;;;;;24.63;12.88;;;;;;;2.82;76.85;93372.09;5044276;28;20033;-66
2020/12/09 00:27:17;;;;;;;27.70;15.00;;;;;;;2.75;76.49;93369.91;5045533;28;20032;-67
2020/12/09 00:29:43;;;;;;;28.67;13.57;;;;;;;2.62;77.43;93364.94;5045023;28;20032;-67
2020/12/09 00:32:08;;;;;;;26.08;12.52;;;;;;;2.64;77.30;93354.28;5047269;28;20104;-67
2020/12/09 00:34:33;;;;;;;20.80;11.57;;;;;;;2.68;77.85;93356.78;5047936;28;20087;-67
2020/12/09 00:36:59;;;;;;;12.93;7.85;;;;;;;2.86;76.84;93351.50;5049169;28;20032;-66
2020/12/09 00:39:25;;;;;;;62.08;22.67;;;;;;;2.72;77.35;93321.81;5047699;28;20476;-66
2020/12/09 00:41:53;;;;;;;29.45;15.75;;;;;;;2.92;77.42;93330.41;5047573;28;20040;-67
2020/12/09 00:44:18;;;;;;;47.40;19.75;;;;;;;2.96;77.59;93335.63;5029884;28;20420;-67
2020/12/09 00:46:47;;;;;;;30.90;15.35;;;;;;;3.04;77.19;93339.28;5046418;28;20036;-67
2020/12/09 00:49:12;;;;;;;30.00;16.95;;;;;;;3.01;77.77;93335.56;5050210;28;20068;-67
2020/12/09 00:51:40;;;;;;;39.67;18.40;;;;;;;3.17;76.64;93336.00;5048123;28;20052;-66
2020/12/09 00:54:08;;;;;;;25.85;15.93;;;;;;;3.16;76.23;93324.38;5048626;28;20075;-67
2020/12/09 00:56:34;;;;;;;29.63;17.23;;;;;;;3.15;76.43;93330.31;5048412;28;20033;-67
2020/12/09 00:58:59;;;;;;;35.28;16.80;;;;;;;3.24;76.95;93332.75;5048159;28;20044;-67
2020/12/09 01:01:25;;;;;;;29.88;15.77;;;;;;;3.24;76.72;93336.22;5048594;28;20047;-67
2020/12/09 01:03:50;;;;;;;30.83;13.27;;;;;;;3.28;77.16;93330.50;5045366;28;20523;-67
2020/12/09 01:06:16;;;;;;;33.28;15.90;;;;;;;3.29;77.61;93327.25;5049251;28;20524;-67
2020/12/09 01:08:41;;;;;;;35.58;19.23;;;;;;;3.04;78.46;93329.13;5046911;28;20488;-67
2020/12/09 01:11:07;;;;;;;36.40;19.25;;;;;;;3.10;78.23;93325.66;5044012;28;20090;-67
2020/12/09 01:13:35;;;;;;;36.50;19.17;;;;;;;2.97;78.69;93329.66;5046779;28;20033;-67
2020/12/09 01:16:00;;;;;;;36.22;19.38;;;;;;;3.16;78.75;93327.09;5048200;28;20027;-67
2020/12/09 01:18:26;;;;;;;29.63;15.65;;;;;;;3.12;78.49;93326.59;5047560;28;20017;-67
2020/12/09 01:20:54;;;;;;;23.27;12.90;;;;;;;3.19;78.82;93336.22;5046742;28;20028;-67
2020/12/09 01:23:22;;;;;;;34.90;19.08;;;;;;;2.92;79.20;93326.97;5045557;28;20025;-67
2020/12/09 01:25:48;;;;;;;44.75;22.08;;;;;;;2.88;81.39;93332.66;5042403;28;20063;-67
2020/12/09 01:28:16;;;;;;;30.77;15.55;;;;;;;3.05;80.93;93336.06;5046337;28;20018;-67
2020/12/09 01:30:41;;;;;;;21.35;13.18;;;;;;;3.20;80.94;93324.09;5047698;28;20021;-67
2020/12/09 01:33:12;;;;;;;32.33;15.55;;;;;;;3.31;81.34;93324.03;5044511;28;20031;-68
2020/12/09 01:35:39;;;;;;;28.20;16.50;;;;;;;3.36;80.78;93323.25;5047469;28;20388;-67
2020/12/09 01:38:07;;;;;;;27.65;14.77;;;;;;;3.34;80.25;93336.66;5046411;28;20032;-67
2020/12/09 01:40:33;;;;;;;28.73;15.18;;;;;;;3.32;79.92;93320.03;5048522;28;20024;-67
2020/12/09 01:43:01;;;;;;;36.85;18.98;;;;;;;3.49;79.34;93324.16;5047724;28;20025;-67
2020/12/09 01:45:29;;;;;;;34.85;18.15;;;;;;;3.59;79.70;93319.91;5045358;28;20067;-67
2020/12/09 01:47:55;;;;;;;34.67;19.50;;;;;;;3.62;79.70;93313.41;5046293;28;20032;-67
2020/12/09 01:50:20;;;;;;;32.95;16.80;;;;;;;3.47;80.09;93291.19;5043203;28;20044;-67
2020/12/09 01:52:46;;;;;;;29.13;14.00;;;;;;;3.59;79.87;93302.75;5045197;28;20048;-68
2020/12/09 01:55:11;;;;;;;30.73;14.98;;;;;;;3.57;79.91;93284.16;5044594;28;20021;-68
2020/12/09 01:57:37;;;;;;;29.30;15.40;;;;;;;3.70;79.33;93287.03;5045759;28;20048;-68
2020/12/09 02:00:04;;;;;;;20.90;12.48;;;;;;;3.54;79.84;93289.88;5044918;28;20527;-67
2020/12/09 02:02:32;;;;;;;69.43;25.52;;;;;;;3.53;79.15;93272.75;5045495;28;20140;-67
2020/12/09 02:04:57;;;;;;;28.75;16.48;;;;;;;3.33;79.19;93266.97;5027734;28;20111;-67
2020/12/09 02:07:32;;;;;;;46.85;20.50;;;;;;;3.39;78.65;93267.66;5046944;28;20052;-68
2020/12/09 02:10:03;;;;;;;32.28;15.50;;;;;;;3.19;80.39;93262.59;5045241;28;20031;-69
2020/12/09 02:12:30;;;;;;;30.25;15.88;;;;;;;3.15;81.46;93281.97;5042534;28;20028;-68
2020/12/09 02:14:56;;;;;;;26.02;12.95;;;;;;;3.08;82.52;93277.78;5044963;28;20067;-69
2020/12/09 02:17:23;;;;;;;18.35;9.77;;;;;;;3.00;85.32;93267.91;5044647;28;20023;-68
2020/12/09 02:19:49;;;;;;;14.88;9.15;;;;;;;3.24;85.95;93284.38;5042451;28;20419;-67
2020/12/09 02:22:17;;;;;;;14.98;8.65;;;;;;;3.37;85.24;93272.88;5045237;28;20029;-68
2020/12/09 02:24:42;;;;;;;21.63;9.83;;;;;;;3.38;84.30;93283.28;5044961;28;20036;-67
2020/12/09 02:27:11;;;;;;;12.75;8.75;;;;;;;3.42;84.62;93278.31;5027131;28;20330;-68
2020/12/09 02:29:36;;;;;;;17.35;8.60;;;;;;;3.48;84.32;93281.75;5042150;28;20024;-68
2020/12/09 02:32:05;;;;;;;17.80;10.32;;;;;;;3.56;83.96;93288.13;5045382;28;20500;-67
2020/12/09 02:34:30;;;;;;;21.27;11.13;;;;;;;3.55;83.54;93288.66;5043354;28;20029;-67
2020/12/09 02:36:55;;;;;;;21.48;10.27;;;;;;;3.57;83.13;93289.59;5045170;28;20271;-68
2020/12/09 02:39:50;;;;;;;18.42;9.63;;;;;;;3.61;82.80;93292.81;5045353;28;20036;-68
2020/12/09 02:42:16;;;;;;;16.35;9.88;;;;;;;3.57;82.72;93302.53;5042660;28;20124;-67
2020/12/09 02:44:41;;;;;;;16.45;9.25;;;;;;;3.56;82.78;93298.31;5042619;28;20104;-68
2020/12/09 02:47:06;;;;;;;14.95;8.13;;;;;;;3.69;82.47;93290.28;5045861;28;20554;-67
2020/12/09 02:49:35;;;;;;;19.92;10.88;;;;;;;3.78;81.69;93298.16;5042360;28;20455;-67
2020/12/09 02:52:00;;;;;;;20.38;11.25;;;;;;;3.61;82.56;93298.28;5045575;28;20543;-67
2020/12/09 02:54:26;;;;;;;17.85;9.68;;;;;;;3.71;81.96;93290.50;5045826;28;20029;-67
2020/12/09 02:56:51;;;;;;;14.80;8.27;;;;;;;3.91;81.35;93301.03;5044810;28;20028;-68
2020/12/09 02:59:17;;;;;;;17.05;8.75;;;;;;;3.97;80.60;93295.50;5045615;28;20025;-67
2020/12/09 03:01:42;;;;;;;20.63;10.15;;;;;;;4.04;80.29;93286.75;5044161;28;20083;-67
2020/12/09 03:04:08;;;;;;;18.42;10.82;;;;;;;4.08;79.59;93300.88;5040242;28;20017;-67
2020/12/09 03:06:36;;;;;;;20.42;11.18;;;;;;;4.08;79.58;93292.69;5043392;28;20045;-67
2020/12/09 03:09:05;;;;;;;28.58;14.60;;;;;;;4.07;79.93;93294.66;5046289;28;20041;-67
2020/12/09 03:11:30;;;;;;;16.50;9.65;;;;;;;3.86;80.70;93293.59;5044419;28;20024;-67
2020/12/09 03:13:59;;;;;;;17.50;10.68;;;;;;;4.05;80.66;93291.69;5043919;28;20060;-67
2020/12/09 03:16:27;;;;;;;14.30;8.90;;;;;;;3.88;80.79;93284.94;5043443;28;20440;-67
2020/12/09 03:18:53;;;;;;;19.25;10.15;;;;;;;3.78;80.70;93279.78;5045516;28;20274;-67
2020/12/09 03:21:21;;;;;;;21.95;12.55;;;;;;;3.88;81.02;93285.66;5042915;28;20362;-67
2020/12/09 03:23:50;;;;;;;48.53;23.85;;;;;;;3.88;81.42;93290.41;5045349;28;20031;-66
2020/12/09 03:26:18;;;;;;;22.98;11.38;;;;;;;3.87;81.02;93281.44;5045613;28;20043;-68
2020/12/09 03:28:46;;;;;;;22.38;10.95;;;;;;;3.95;80.89;93289.81;5046273;28;20017;-68
2020/12/09 03:31:11;;;;;;;21.33;10.80;;;;;;;3.98;80.58;93273.16;5042853;28;20021;-68
2020/12/09 03:33:37;;;;;;;17.13;10.55;;;;;;;4.11;80.56;93280.75;5046664;28;20052;-68
2020/12/09 03:36:03;;;;;;;16.67;10.20;;;;;;;4.13;80.40;93284.44;5045430;28;20017;-68
2020/12/09 03:38:28;;;;;;;22.90;12.93;;;;;;;4.12;80.44;93274.00;5046033;28;20091;-68
2020/12/09 03:40:57;;;;;;;30.55;13.52;;;;;;;4.25;80.71;93274.13;5043630;28;20080;-68
2020/12/09 03:43:25;;;;;;;25.13;12.10;;;;;;;4.16;80.48;93288.16;5045227;28;20025;-68
2020/12/09 03:45:53;;;;;;;22.10;12.43;;;;;;;4.20;80.47;93289.31;5041961;28;20523;-68
2020/12/09 03:48:19;;;;;;;30.93;15.37;;;;;;;4.29;80.00;93294.47;5027762;28;20647;-67
2020/12/09 03:50:53;;;;;;;23.23;12.10;;;;;;;4.07;80.71;93297.41;5043555;28;20272;-67
2020/12/09 03:53:20;;;;;;;22.55;12.57;;;;;;;4.10;81.00;93306.56;5042878;28;20416;-67
2020/12/09 03:55:46;;;;;;;36.45;16.70;;;;;;;4.11;80.53;93286.94;5046264;28;20503;-68
2020/12/09 03:58:14;;;;;;;23.58;11.80;;;;;;;4.05;80.87;93296.44;5044158;28;20056;-68
2020/12/09 04:00:40;;;;;;;19.08;10.35;;;;;;;4.00;81.18;93300.72;5045658;28;20548;-68
2020/12/09 04:03:06;;;;;;;23.02;11.25;;;;;;;3.95;81.37;93289.81;5041654;28;20155;-68
2020/12/09 04:05:34;;;;;;;24.67;10.68;;;;;;;3.94;81.57;93300.03;5045049;28;20052;-68
2020/12/09 04:07:59;;;;;;;27.05;12.95;;;;;;;4.04;81.74;93295.69;5045620;28;20040;-68
2020/12/09 04:10:25;;;;;;;34.67;16.15;;;;;;;4.07;81.21;93275.53;5049059;28;20025;-68
2020/12/09 04:12:50;;;;;;;29.27;14.50;;;;;;;4.13;80.94;93280.97;5049861;28;20416;-68
2020/12/09 04:15:17;;;;;;;19.88;9.57;;;;;;;4.12;80.66;93284.94;5048926;28;20477;-67
2020/12/09 04:17:42;;;;;;;18.73;10.27;;;;;;;4.19;80.52;93276.94;5050183;28;20055;-67
2020/12/09 04:20:08;;;;;;;22.45;13.70;;;;;;;4.24;80.88;93281.63;5047176;28;20021;-67
2020/12/09 04:22:34;;;;;;;25.33;13.15;;;;;;;4.20;80.50;93277.69;5047425;28;20094;-67
2020/12/09 04:24:59;;;;;;;24.70;13.35;;;;;;;4.32;80.37;93284.50;5046527;28;20473;-67
2020/12/09 04:27:25;;;;;;;19.58;11.30;;;;;;;4.30;80.66;93276.81;5045918;28;20108;-67
2020/12/09 04:29:50;;;;;;;31.23;15.38;;;;;;;4.32;80.50;93288.00;5048099;28;20111;-67
2020/12/09 04:32:16;;;;;;;21.60;11.70;;;;;;;3.99;81.69;93280.09;5047102;28;20717;-67
2020/12/09 04:34:41;;;;;;;24.63;14.93;;;;;;;3.96;82.08;93277.66;5044249;28;20071;-67
2020/12/09 04:37:08;;;;;;;21.13;12.20;;;;;;;4.00;82.35;93273.41;5044732;28;20021;-67
2020/12/09 04:39:33;;;;;;;20.35;12.13;;;;;;;4.01;82.62;93274.84;5046112;28;20539;-67
2020/12/09 04:41:59;;;;;;;20.60;12.13;;;;;;;4.08;82.35;93266.09;5047657;28;20077;-67
2020/12/09 04:44:24;;;;;;;18.30;10.40;;;;;;;4.07;82.47;93269.34;5047784;28;20029;-67
2020/12/09 04:46:51;;;;;;;19.27;12.07;;;;;;;4.10;82.23;93276.50;5048672;28;20021;-67
2020/12/09 04:49:19;;;;;;;23.73;13.13;;;;;;;4.17;82.20;93279.44;5045692;28;20032;-67
2020/12/09 04:52:23;;;;;;;20.23;12.77;;;;;;;4.33;81.43;93275.06;5028730;28;20105;-67
2020/12/09 04:54:52;;;;;;;24.92;12.63;;;;;;;4.30;81.09;93268.63;5030763;28;20112;-67
2020/12/09 04:57:23;;;;;;;21.88;12.20;;;;;;;4.36;81.03;93257.63;5047381;28;20029;-67
2020/12/09 04:59:59;;;;;;;29.98;15.25;;;;;;;4.19;nan;93265.25;5045430;28;20028;-67
2020/12/09 05:02:35;;;;;;;28.83;15.32;;;;;;;4.35;80.71;93261.63;5048734;28;20061;-67
2020/12/09 05:05:00;;;;;;;31.52;16.80;;;;;;;4.36;80.67;93258.38;5044632;28;20024;-67
2020/12/09 05:07:27;;;;;;;33.78;18.95;;;;;;;4.49;80.73;93263.19;5046282;28;20096;-67
2020/12/09 05:09:53;;;;;;;30.70;17.63;;;;;;;4.35;80.48;93256.88;5030650;28;20465;-68
2020/12/09 05:12:18;;;;;;;27.80;17.05;;;;;;;4.37;80.86;93248.94;5029044;28;20021;-68
2020/12/09 05:14:47;;;;;;;26.27;15.43;;;;;;;4.45;80.95;93249.09;5046931;28;20534;-68
2020/12/09 05:17:15;;;;;;;38.50;21.63;;;;;;;4.24;80.91;93239.88;5047010;28;20021;-68
2020/12/09 05:39:05;;;;;;;26.55;16.20;;;;;;;4.44;80.92;93218.28;5117600;27;20810;-68
2020/12/09 05:41:32;;;;;;;19.15;12.02;;;;;;;4.40;81.23;93225.28;5098660;28;20035;-67
2020/12/09 05:44:02;;;;;;;12.05;7.50;;;;;;;4.20;82.43;93220.31;5103932;28;20023;-67
2020/12/09 05:46:28;;;;;;;16.25;9.43;;;;;;;4.28;82.35;93221.94;5116861;28;20058;-67
2020/12/09 05:48:53;;;;;;;23.02;13.60;;;;;;;4.28;82.39;93224.69;5108987;27;20118;-68
2020/12/09 05:51:19;;;;;;;17.95;10.07;;;;;;;4.37;82.00;93237.25;5117565;27;20393;-67
2020/12/09 05:53:46;;;;;;;13.90;8.93;;;;;;;4.23;82.03;93228.19;5111558;27;20097;-68
2020/12/09 05:56:13;;;;;;;25.33;14.82;;;;;;;4.33;81.81;93248.47;5110785;28;20034;-68
2020/12/09 05:58:46;;;;;;;30.25;16.90;;;;;;;4.25;82.04;93252.28;5118271;28;20084;-68
2020/12/09 06:01:12;;;;;;;15.27;9.52;;;;;;;4.28;82.60;93265.66;5115409;28;20019;-69
2020/12/09 06:03:40;;;;;;;15.18;9.07;;;;;;;4.23;82.33;93266.47;5110569;28;20437;-69
2020/12/09 06:06:11;;;;;;;15.70;10.07;;;;;;;4.31;82.57;93267.34;5106956;28;20106;-69
2020/12/09 06:08:51;;;;;;;25.48;14.00;;;;;;;4.31;81.85;93253.69;5118478;28;20027;-69
2020/12/09 06:11:24;;;;;;;15.77;8.68;;;;;;;4.30;81.68;93233.09;5104409;28;20795;-69
2020/12/09 06:13:50;;;;;;;16.83;10.70;;;;;;;4.48;81.38;93267.19;5105150;28;20502;-69
2020/12/09 06:16:20;;;;;;;18.98;9.25;;;;;;;4.50;80.90;93265.41;5104354;28;20024;-69
2020/12/09 06:18:47;;;;;;;16.85;10.65;;;;;;;4.35;80.98;93262.34;5112015;28;20056;-69
2020/12/09 06:21:13;;;;;;;9.65;6.72;;;;;;;4.24;81.46;93254.28;5105745;28;20031;-68
2020/12/09 06:23:39;;;;;;;11.00;6.60;;;;;;;4.22;81.89;93266.97;5106911;28;20031;-66
2020/12/09 06:26:08;;;;;;;9.52;6.35;;;;;;;4.04;82.41;93271.13;5104681;28;20471;-68
2020/12/09 06:28:34;;;;;;;;;;;;;;;3.89;83.11;93261.81;5110350;27;20399;-68
2020/12/09 06:31:32;;;;;;;10.02;5.22;;;;;;;3.89;83.00;93259.84;5102137;28;19934;-69
2020/12/09 06:33:59;;;;;;;9.00;4.47;;;;;;;3.89;83.22;93275.47;5099486;27;20055;-69
2020/12/09 06:36:31;;;;;;;9.52;5.95;;;;;;;3.80;83.75;93268.34;5105899;28;20487;-68
2020/12/09 06:39:13;;;;;;;10.13;6.15;;;;;;;3.79;83.73;93261.41;5096815;27;20047;-68
2020/12/09 06:41:41;;;;;;;12.65;7.45;;;;;;;3.85;84.42;93273.03;5101179;28;20154;-68
2020/12/09 06:44:11;;;;;;;10.00;5.82;;;;;;;3.88;83.84;93263.81;5091098;28;20101;-68
2020/12/09 06:46:42;;;;;;;11.98;6.75;;;;;;;4.07;83.50;93267.34;5093198;28;20096;-69
2020/12/09 06:49:41;;;;;;;10.38;6.13;;;;;;;4.08;82.80;93266.09;5099979;28;20023;-69
2020/12/09 06:52:09;;;;;;;10.43;5.50;;;;;;;4.07;82.61;93252.97;5085495;28;20055;-67
2020/12/09 06:54:42;;;;;;;9.18;5.07;;;;;;;3.91;83.04;93268.25;5091886;28;20031;-67
2020/12/09 06:57:24;;;;;;;7.78;4.90;;;;;;;4.03;82.87;93255.97;5091950;28;20024;-67
2020/12/09 06:59:56;;;;;;;11.20;7.00;;;;;;;3.96;82.26;93259.28;5095502;28;20016;-67
2020/12/09 07:02:27;;;;;;;10.00;5.90;;;;;;;4.09;82.72;93255.94;5095085;28;20028;-67
2020/12/09 07:04:52;;;;;;;26.67;12.68;;;;;;;4.16;81.92;93261.56;5091167;28;20035;-67
2020/12/09 07:07:32;;;;;;;59.08;23.67;;;;;;;4.23;81.65;93255.53;5097040;28;20012;-67
2020/12/09 07:09:59;;;;;;;46.85;22.10;;;;;;;4.23;82.06;93249.31;5091302;28;20448;-66
2020/12/09 07:12:26;;;;;;;10.27;7.18;;;;;;;4.24;81.66;93250.81;5091320;28;20852;-65
2020/12/09 07:14:54;;;;;;;18.77;9.88;;;;;;;4.23;81.79;93258.25;5090368;28;20028;-66
2020/12/09 07:17:27;;;;;;;10.48;6.15;;;;;;;4.20;82.33;93255.81;5094038;28;20105;-65
2020/12/09 07:19:56;;;;;;;10.18;5.18;;;;;;;4.21;82.08;93260.78;5090176;28;20027;-65
2020/12/09 07:22:22;;;;;;;7.72;5.40;;;;;;;4.14;82.13;93264.06;5088824;28;20478;-64
2020/12/09 07:24:47;;;;;;;11.77;6.05;;;;;;;4.13;82.23;93259.84;5093103;28;20384;-64
2020/12/09 07:27:13;;;;;;;9.32;5.50;;;;;;;3.85;82.87;93251.91;5093722;28;20019;-65
2020/12/09 07:29:40;;;;;;;8.63;6.00;;;;;;;3.77;84.10;93250.25;5095597;28;20115;-65
2020/12/09 07:32:06;;;;;;;9.88;5.15;;;;;;;3.74;83.86;93248.53;5091423;28;20092;-65
2020/12/09 07:34:32;;;;;;;11.25;5.20;;;;;;;3.79;84.01;93234.09;5073759;28;20028;-67
2020/12/09 07:36:57;;;;;;;9.68;4.85;;;;;;;3.73;84.26;93239.59;5087207;28;20533;-65
2020/12/09 07:39:32;;;;;;;13.82;5.65;;;;;;;3.80;84.18;93249.22;5077478;28;20457;-68
2020/12/09 07:41:59;;;;;;;8.88;6.43;;;;;;;3.95;83.87;93248.84;5087677;28;20486;-68
2020/12/09 07:44:25;;;;;;;6.57;4.32;;;;;;;4.10;82.99;93236.28;5092675;28;20024;-67
2020/12/09 07:46:58;;;;;;;8.73;5.20;;;;;;;4.11;83.14;93242.50;5093281;28;20034;-66
2020/12/09 07:49:25;;;;;;;12.93;6.65;;;;;;;4.14;83.23;93238.72;5095274;28;20020;-66
2020/12/09 07:51:52;;;;;;;8.38;5.05;;;;;;;4.20;82.64;93250.34;5094690;28;20026;-67
2020/12/09 07:54:19;;;;;;;9.88;4.50;;;;;;;4.12;82.01;93239.25;5090707;28;20024;-66
2020/12/09 07:56:45;;;;;;;8.93;5.50;;;;;;;4.06;82.81;93237.81;5091715;28;20016;-66
2020/12/09 07:59:12;;;;;;;7.35;4.70;;;;;;;4.16;82.63;93245.16;5092688;28;20627;-66
2020/12/09 08:01:40;;;;;;;26.23;13.57;;;;;;;4.29;82.45;93237.06;5092693;28;20030;-66
2020/12/09 08:04:06;;;;;;;9.95;5.80;;;;;;;4.21;82.56;93238.16;5095752;28;20399;-66
2020/12/09 08:06:33;;;;;;;10.13;6.18;;;;;;;4.35;82.07;93240.47;5096360;28;20034;-66
2020/12/09 08:09:17;;;;;;;8.98;5.22;;;;;;;4.44;81.62;93242.16;5094851;28;20062;-66
2020/12/09 08:11:43;;;;;;;8.45;4.72;;;;;;;4.37;81.20;93240.72;5096750;28;20415;-66
2020/12/09 08:14:12;;;;;;;7.65;4.97;;;;;;;4.39;81.58;93251.88;5094471;28;20060;-66
2020/12/09 08:16:38;;;;;;;7.50;5.00;;;;;;;4.49;81.13;93241.34;5091528;28;20028;-66
2020/12/09 08:19:07;;;;;;;6.90;4.70;;;;;;;4.40;80.93;93238.94;5091437;28;20027;-66
2020/12/09 08:21:33;;;;;;;10.63;4.80;;;;;;;4.39;80.69;93235.50;5092214;28;20088;-65
2020/12/09 08:23:59;;;;;;;9.38;4.75;;;;;;;4.47;80.69;93249.31;5089680;28;20035;-66
2020/12/09 08:26:33;;;;;;;7.28;4.93;;;;;;;4.35;80.57;93262.34;5089795;28;20491;-65
2020/12/09 08:28:58;;;;;;;9.70;5.53;;;;;;;4.29;81.38;93261.66;5081749;28;20114;-66
2020/12/09 08:31:24;;;;;;;10.98;6.03;;;;;;;4.11;81.70;93254.16;5090011;28;20102;-66
2020/12/09 08:33:50;;;;;;;10.82;6.25;;;;;;;4.05;82.72;93258.22;5090532;28;20020;-66
2020/12/09 08:36:17;;;;;;;8.85;6.00;;;;;;;4.03;82.41;93252.50;5090724;28;20031;-65
2020/12/09 08:38:46;;;;;;;12.15;6.88;;;;;;;3.81;83.42;93248.00;5092802;28;22056;-65
2020/12/09 08:41:28;;;;;;;10.55;6.28;;;;;;;3.86;83.43;93249.91;5095264;28;20084;-66
2020/12/09 08:43:56;;;;;;;28.75;14.65;;;;;;;4.08;83.37;93246.25;5090978;28;20024;-65
2020/12/09 08:46:23;;;;;;;31.05;19.67;;;;;;;4.17;83.65;93246.66;5093475;28;20054;-65
2020/12/09 08:48:49;;;;;;;20.80;12.00;;;;;;;4.36;82.37;93241.22;5088423;28;21416;-65
2020/12/09 08:51:14;;;;;;;10.70;5.93;;;;;;;4.35;81.84;93256.16;5093515;28;20020;-66
2020/12/09 08:53:40;;;;;;;11.55;5.93;;;;;;;4.21;81.52;93252.56;5090837;28;20028;-66
2020/12/09 08:56:06;;;;;;;10.32;5.55;;;;;;;4.04;82.60;93241.06;5093104;28;20127;-66
2020/12/09 08:58:32;;;;;;;10.68;5.75;;;;;;;4.07;83.15;93236.56;5092519;28;20099;-66
2020/12/09 09:00:59;;;;;;;11.38;5.63;;;;;;;4.08;83.43;93247.00;5091591;28;20821;-66
2020/12/09 09:03:28;;;;;;;20.15;10.45;;;;;;;4.29;82.43;93231.59;5090535;28;20395;-66
2020/12/09 09:05:59;;;;;;;9.52;5.47;;;;;;;4.08;82.04;93219.66;5092032;28;20479;-67
2020/12/09 09:08:25;;;;;;;10.90;6.28;;;;;;;4.08;82.67;93218.91;5089069;28;20114;-66
2020/12/09 09:10:54;;;;;;;9.43;6.50;;;;;;;4.03;82.67;93225.91;5098355;28;20118;-67
2020/12/09 09:13:19;;;;;;;12.45;6.57;;;;;;;3.92;83.68;93231.47;5088475;28;20016;-65
2020/12/09 09:15:45;;;;;;;11.25;6.72;;;;;;;4.01;83.97;93212.03;5093204;28;20023;-66
2020/12/09 09:18:10;;;;;;;10.80;6.43;;;;;;;3.82;84.02;93211.97;5097195;28;20077;-67
2020/12/09 09:20:36;;;;;;;14.95;7.70;;;;;;;3.85;84.42;93212.94;5090474;28;20039;-66
2020/12/09 09:23:06;;;;;;;14.60;6.82;;;;;;;4.06;83.94;93216.72;5089096;28;20035;-66
2020/12/09 09:25:33;;;;;;;9.18;6.13;;;;;;;3.94;83.64;93211.88;5091925;28;20035;-66
2020/12/09 09:27:58;;;;;;;11.10;5.53;;;;;;;3.94;83.34;93203.69;5079947;28;20047;-67
2020/12/09 09:30:24;;;;;;;9.93;6.13;;;;;;;4.01;83.39;93203.84;5091096;28;20119;-67
2020/12/09 09:32:50;;;;;;;9.18;5.35;;;;;;;3.98;83.48;93193.94;5089403;28;20015;-67
2020/12/09 09:35:17;;;;;;;22.05;9.40;;;;;;;4.07;83.61;93199.06;5087165;28;20541;-67
2020/12/09 09:37:43;;;;;;;7.78;4.47;;;;;;;4.22;82.58;93198.66;5085317;28;20123;-67
2020/12/09 09:40:10;;;;;;;11.48;7.10;;;;;;;4.30;81.96;93196.81;5088975;28;20041;-67
2020/12/09 09:42:35;;;;;;;9.27;5.65;;;;;;;4.21;81.94;93187.00;5085065;28;20070;-67
2020/12/09 09:45:04;;;;;;;9.30;4.15;;;;;;;4.23;82.36;93179.03;5090399;28;20036;-67
2020/12/09 09:47:29;;;;;;;7.90;4.70;;;;;;;4.11;82.85;93161.28;5087962;28;20016;-67
2020/12/09 09:49:55;;;;;;;8.23;5.00;;;;;;;4.22;82.84;93161.13;5090926;28;20402;-68
2020/12/09 09:52:20;;;;;;;8.10;4.97;;;;;;;4.30;82.78;93166.78;5088734;28;20818;-68
2020/12/09 09:54:46;;;;;;;7.38;5.72;;;;;;;4.23;82.30;93168.09;5091249;28;20028;-66
2020/12/09 09:57:11;;;;;;;6.88;5.20;;;;;;;4.38;82.00;93162.94;5091218;28;20510;-67
2020/12/09 09:59:37;;;;;;;11.85;7.40;;;;;;;4.24;82.36;93147.72;5091283;28;20384;-68
2020/12/09 10:02:03;;;;;;;10.32;5.65;;;;;;;4.27;82.55;93143.19;5088291;28;20032;-67
2020/12/09 10:04:28;;;;;;;9.40;5.45;;;;;;;4.20;82.50;93133.59;5091201;28;20374;-67
2020/12/09 10:06:54;;;;;;;7.38;4.68;;;;;;;4.25;82.50;93142.97;5090384;28;20476;-68
2020/12/09 10:09:20;;;;;;;5.95;3.85;;;;;;;4.42;81.98;93132.56;5091398;28;20027;-68
2020/12/09 10:11:45;;;;;;;6.82;4.88;;;;;;;4.39;81.69;93120.69;5087396;28;20100;-67
2020/12/09 10:14:12;;;;;;;7.40;5.20;;;;;;;4.35;nan;93119.50;5093040;28;20468;-67
2020/12/09 10:16:39;;;;;;;6.57;4.78;;;;;;;4.19;82.38;93123.19;5092351;28;20078;-68
2020/12/09 10:19:05;;;;;;;8.63;5.25;;;;;;;4.31;82.40;93138.91;5095399;28;20563;-68
2020/12/09 10:21:33;;;;;;;8.52;5.18;;;;;;;4.36;82.40;93148.31;5090291;28;20032;-68
2020/12/09 10:23:59;;;;;;;9.38;6.00;;;;;;;4.40;81.93;93135.09;5094201;28;20038;-68
2020/12/09 10:26:38;;;;;;;12.30;6.05;;;;;;;4.57;82.16;93121.94;5096597;28;20023;-68
2020/12/09 10:29:08;;;;;;;8.88;5.15;;;;;;;4.79;81.67;93129.09;5086906;28;20410;-68
2020/12/09 10:31:39;;;;;;;5.55;3.90;;;;;;;5.09;80.26;93130.38;5095163;28;20101;-68
2020/12/09 10:34:07;;;;;;;9.88;5.50;;;;;;;5.38;79.14;93142.38;5094182;28;20484;-68
2020/12/09 10:36:33;;;;;;;11.05;6.00;;;;;;;5.32;78.62;93119.81;5094222;28;20024;-68
2020/12/09 10:38:58;;;;;;;8.50;5.43;;;;;;;5.45;77.82;93125.34;5092315;28;20047;-68
2020/12/09 10:41:24;;;;;;;6.88;4.75;;;;;;;5.41;77.89;93119.44;5093599;28;20533;-68
2020/12/09 10:43:51;;;;;;;7.72;4.78;;;;;;;5.50;77.34;93116.28;5090400;28;20069;-68
2020/12/09 10:46:18;;;;;;;12.80;7.18;;;;;;;5.44;77.84;93093.72;5076739;28;20028;-68
2020/12/09 10:48:44;;;;;;;8.00;4.70;;;;;;;5.59;78.00;93110.38;5094915;28;20015;-68
2020/12/09 10:51:09;;;;;;;6.18;4.00;;;;;;;5.66;77.05;93100.81;5093412;28;20032;-68
2020/12/09 10:53:38;;;;;;;8.32;4.97;;;;;;;5.63;77.86;93093.66;5094134;28;20395;-68
2020/12/09 10:56:03;;;;;;;10.33;5.73;;;;;;;5.89;77.77;93093.72;5093304;28;20221;-68
2020/12/09 10:58:29;;;;;;;10.98;6.32;;;;;;;5.91;76.75;93091.19;5089397;28;20333;-68
2020/12/09 11:00:55;;;;;;;6.05;3.97;;;;;;;5.90;76.53;93076.75;5088645;28;20032;-68
2020/12/09 11:03:21;;;;;;;6.57;4.75;;;;;;;5.86;76.18;93090.03;5090162;28;20028;-67
2020/12/09 11:05:47;;;;;;;7.93;5.05;;;;;;;5.80;76.62;93107.78;5091042;28;20077;-68
2020/12/09 11:08:13;;;;;;;6.30;3.85;;;;;;;5.66;76.45;93098.81;5087953;28;20015;-68
2020/12/09 11:10:39;;;;;;;10.90;5.32;;;;;;;5.48;77.89;93107.84;5090321;28;20023;-67
2020/12/09 11:13:04;;;;;;;14.45;9.15;;;;;;;5.36;78.27;93107.31;5091855;28;20030;-67
2020/12/09 11:15:30;;;;;;;11.30;6.32;;;;;;;5.43;78.15;93095.00;5084249;28;20066;-67
2020/12/09 11:17:57;;;;;;;6.28;4.55;;;;;;;5.41;77.64;93094.06;5088716;28;20486;-67
2020/12/09 11:20:23;;;;;;;8.93;5.47;;;;;;;5.45;77.97;93099.94;5091801;28;20019;-68
2020/12/09 11:22:48;;;;;;;8.63;5.13;;;;;;;5.26;78.41;93073.38;5091597;28;20593;-68
2020/12/09 11:25:14;;;;;;;7.55;5.20;;;;;;;5.41;77.83;93089.31;5091642;28;20032;-68
2020/12/09 11:27:39;;;;;;;7.72;4.32;;;;;;;5.18;78.26;93080.00;5098996;28;20086;-68
2020/12/09 11:30:04;;;;;;;14.93;9.40;;;;;;;5.21;79.01;93078.94;5089258;28;20488;-67
2020/12/09 11:32:36;;;;;;;8.50;5.18;;;;;;;5.12;78.54;93068.41;5091719;28;20487;-67
2020/12/09 11:35:02;;;;;;;10.25;6.57;;;;;;;5.22;78.90;93074.94;5094247;28;20054;-67
2020/12/09 11:37:31;;;;;;;7.65;5.32;;;;;;;5.08;78.75;93043.34;5090799;28;20513;-68
2020/12/09 11:39:57;;;;;;;8.55;4.95;;;;;;;5.14;78.80;93063.13;5091512;28;20035;-67
2020/12/09 11:42:22;;;;;;;6.68;4.68;;;;;;;5.19;79.18;93063.06;5095749;28;20077;-68
2020/12/09 11:44:47;;;;;;;6.82;5.15;;;;;;;5.17;78.89;93051.91;5089202;28;20027;-67
2020/12/09 11:47:16;;;;;;;7.90;5.25;;;;;;;5.00;79.55;93056.19;5089572;28;20020;-68
2020/12/09 11:49:41;;;;;;;6.53;3.78;;;;;;;5.08;79.11;93055.03;5089978;28;20051;-67
2020/12/09 11:52:07;;;;;;;7.47;5.50;;;;;;;5.15;79.46;93053.69;5092898;28;20032;-67